Florida, Massachusetts
Current Conditions -  °F | °C
As of 10:52 PM on Tuesday 25 Nov 2014 (Local Time) from KAQW Reporting Station
Clear Clear  
Wind Chill: 36°   Ceiling: Unl
Heat Index: 41°   Visibility: 10mi
Dew Point: 26°   Wind: 7mph
Humidity: 55%   Direction: 270°W
Pressure: 30.12"   Gusts: NA
Location:  42.6996°N, 73.0936°W
Report Text: KAQW 260352Z AUTO 27006KT 10SM CLR 05/M03 A3012 RMK AO2 SLP205 T00501033
Loading
Personal Weather Stations






























Interactive Weather Map New forecast layout! Learn more

10-Day Weather Forecast

Advertisements
Track Severe Weather on mobile